sensor_id;sensor_type;location;lat;lon;timestamp;P1;durP1;ratioP1;P2;durP2;ratioP2
47413;SDS011;33163;0.000;0.000;2023-07-08T00:00:09;4.78;;;2.08;;
47413;SDS011;33163;0.000;0.000;2023-07-08T00:02:40;4.85;;;2.20;;
47413;SDS011;33163;0.000;0.000;2023-07-08T00:05:08;4.32;;;2.28;;
47413;SDS011;33163;0.000;0.000;2023-07-08T00:07:35;4.07;;;2.05;;
47413;SDS011;33163;0.000;0.000;2023-07-08T00:10:09;5.00;;;1.90;;
47413;SDS011;33163;0.000;0.000;2023-07-08T00:12:38;4.15;;;2.10;;
47413;SDS011;33163;0.000;0.000;2023-07-08T00:15:05;4.03;;;2.13;;
47413;SDS011;33163;0.000;0.000;2023-07-08T00:17:32;3.72;;;2.20;;
47413;SDS011;33163;0.000;0.000;2023-07-08T00:19:59;3.53;;;2.17;;
47413;SDS011;33163;0.000;0.000;2023-07-08T00:22:26;3.08;;;2.13;;
47413;SDS011;33163;0.000;0.000;2023-07-08T00:24:53;3.75;;;2.45;;
47413;SDS011;33163;0.000;0.000;2023-07-08T00:27:21;2.78;;;1.73;;
47413;SDS011;33163;0.000;0.000;2023-07-08T00:29:48;5.50;;;2.25;;
47413;SDS011;33163;0.000;0.000;2023-07-08T00:32:15;3.20;;;2.20;;
47413;SDS011;33163;0.000;0.000;2023-07-08T00:34:42;4.45;;;2.00;;
47413;SDS011;33163;0.000;0.000;2023-07-08T00:37:10;3.28;;;2.10;;
47413;SDS011;33163;0.000;0.000;2023-07-08T00:39:38;4.57;;;2.38;;
47413;SDS011;33163;0.000;0.000;2023-07-08T00:42:09;4.53;;;2.50;;
47413;SDS011;33163;0.000;0.000;2023-07-08T00:44:42;3.25;;;1.63;;
47413;SDS011;33163;0.000;0.000;2023-07-08T00:47:10;3.47;;;2.28;;
47413;SDS011;33163;0.000;0.000;2023-07-08T00:49:40;2.05;;;1.83;;
47413;SDS011;33163;0.000;0.000;2023-07-08T00:52:15;2.60;;;2.08;;
47413;SDS011;33163;0.000;0.000;2023-07-08T00:54:43;2.47;;;1.98;;
47413;SDS011;33163;0.000;0.000;2023-07-08T00:57:10;3.13;;;2.28;;
47413;SDS011;33163;0.000;0.000;2023-07-08T00:59:39;5.07;;;2.30;;
47413;SDS011;33163;0.000;0.000;2023-07-08T01:02:12;4.45;;;2.22;;
47413;SDS011;33163;0.000;0.000;2023-07-08T01:04:42;5.57;;;2.65;;
47413;SDS011;33163;0.000;0.000;2023-07-08T01:07:15;3.15;;;2.10;;
47413;SDS011;33163;0.000;0.000;2023-07-08T01:09:46;5.82;;;2.35;;
47413;SDS011;33163;0.000;0.000;2023-07-08T01:12:16;2.22;;;2.03;;
47413;SDS011;33163;0.000;0.000;2023-07-08T01:14:49;2.83;;;1.90;;
47413;SDS011;33163;0.000;0.000;2023-07-08T01:17:19;3.47;;;2.42;;
47413;SDS011;33163;0.000;0.000;2023-07-08T01:19:47;2.58;;;2.00;;
47413;SDS011;33163;0.000;0.000;2023-07-08T01:22:17;4.05;;;2.40;;
47413;SDS011;33163;0.000;0.000;2023-07-08T01:24:45;3.47;;;2.22;;
47413;SDS011;33163;0.000;0.000;2023-07-08T01:27:13;2.63;;;2.10;;
47413;SDS011;33163;0.000;0.000;2023-07-08T01:29:42;2.95;;;1.92;;
47413;SDS011;33163;0.000;0.000;2023-07-08T01:32:11;2.88;;;1.85;;
47413;SDS011;33163;0.000;0.000;2023-07-08T01:34:43;3.45;;;1.98;;
47413;SDS011;33163;0.000;0.000;2023-07-08T01:37:26;6.13;;;2.53;;
47413;SDS011;33163;0.000;0.000;2023-07-08T01:42:41;2.08;;;1.88;;
47413;SDS011;33163;0.000;0.000;2023-07-08T01:45:10;2.10;;;1.80;;
47413;SDS011;33163;0.000;0.000;2023-07-08T01:47:37;2.92;;;2.08;;
47413;SDS011;33163;0.000;0.000;2023-07-08T01:50:06;3.72;;;2.15;;
47413;SDS011;33163;0.000;0.000;2023-07-08T01:52:35;4.80;;;2.20;;
47413;SDS011;33163;0.000;0.000;2023-07-08T01:55:02;3.53;;;2.10;;
47413;SDS011;33163;0.000;0.000;2023-07-08T01:57:31;5.45;;;2.13;;
47413;SDS011;33163;0.000;0.000;2023-07-08T01:59:58;6.13;;;2.33;;
47413;SDS011;33163;0.000;0.000;2023-07-08T02:02:24;3.67;;;2.08;;
47413;SDS011;33163;0.000;0.000;2023-07-08T02:04:59;2.35;;;1.90;;
47413;SDS011;33163;0.000;0.000;2023-07-08T02:07:41;2.80;;;2.13;;
47413;SDS011;33163;0.000;0.000;2023-07-08T02:10:08;3.40;;;2.05;;
47413;SDS011;33163;0.000;0.000;2023-07-08T02:12:35;2.53;;;1.88;;
47413;SDS011;33163;0.000;0.000;2023-07-08T02:15:02;2.28;;;2.00;;
47413;SDS011;33163;0.000;0.000;2023-07-08T02:17:30;3.05;;;1.73;;
47413;SDS011;33163;0.000;0.000;2023-07-08T02:19:57;3.38;;;2.25;;
47413;SDS011;33163;0.000;0.000;2023-07-08T02:22:23;3.22;;;2.13;;
47413;SDS011;33163;0.000;0.000;2023-07-08T02:24:51;2.50;;;1.77;;
47413;SDS011;33163;0.000;0.000;2023-07-08T02:27:18;2.50;;;1.90;;
47413;SDS011;33163;0.000;0.000;2023-07-08T02:29:45;5.07;;;2.10;;
47413;SDS011;33163;0.000;0.000;2023-07-08T02:32:12;2.35;;;2.00;;
47413;SDS011;33163;0.000;0.000;2023-07-08T02:34:38;3.55;;;2.47;;
47413;SDS011;33163;0.000;0.000;2023-07-08T02:37:06;2.15;;;1.48;;
47413;SDS011;33163;0.000;0.000;2023-07-08T02:39:33;3.30;;;1.80;;
47413;SDS011;33163;0.000;0.000;2023-07-08T02:42:01;3.90;;;1.85;;
47413;SDS011;33163;0.000;0.000;2023-07-08T02:44:28;2.47;;;2.20;;
47413;SDS011;33163;0.000;0.000;2023-07-08T02:46:54;3.40;;;2.08;;
47413;SDS011;33163;0.000;0.000;2023-07-08T02:49:21;2.92;;;1.92;;
47413;SDS011;33163;0.000;0.000;2023-07-08T02:51:48;2.83;;;2.17;;
47413;SDS011;33163;0.000;0.000;2023-07-08T02:54:15;2.40;;;1.80;;
47413;SDS011;33163;0.000;0.000;2023-07-08T02:56:42;4.15;;;2.50;;
47413;SDS011;33163;0.000;0.000;2023-07-08T02:59:10;2.97;;;1.90;;
47413;SDS011;33163;0.000;0.000;2023-07-08T03:01:36;2.97;;;2.30;;
47413;SDS011;33163;0.000;0.000;2023-07-08T03:04:06;2.33;;;1.92;;
47413;SDS011;33163;0.000;0.000;2023-07-08T03:06:37;2.47;;;2.00;;
47413;SDS011;33163;0.000;0.000;2023-07-08T03:09:04;3.67;;;2.30;;
47413;SDS011;33163;0.000;0.000;2023-07-08T03:11:31;2.22;;;1.80;;
47413;SDS011;33163;0.000;0.000;2023-07-08T03:13:58;3.58;;;2.30;;
47413;SDS011;33163;0.000;0.000;2023-07-08T03:16:26;2.47;;;2.05;;
47413;SDS011;33163;0.000;0.000;2023-07-08T03:18:53;3.40;;;2.05;;
47413;SDS011;33163;0.000;0.000;2023-07-08T03:21:19;2.20;;;1.80;;
47413;SDS011;33163;0.000;0.000;2023-07-08T03:23:47;2.63;;;1.95;;
47413;SDS011;33163;0.000;0.000;2023-07-08T03:26:15;2.47;;;1.98;;
47413;SDS011;33163;0.000;0.000;2023-07-08T03:28:43;4.03;;;2.25;;
47413;SDS011;33163;0.000;0.000;2023-07-08T03:31:10;3.03;;;2.22;;
47413;SDS011;33163;0.000;0.000;2023-07-08T03:33:38;5.07;;;2.17;;
47413;SDS011;33163;0.000;0.000;2023-07-08T03:36:08;2.90;;;1.90;;
47413;SDS011;33163;0.000;0.000;2023-07-08T03:38:38;5.10;;;2.10;;
47413;SDS011;33163;0.000;0.000;2023-07-08T03:41:05;2.28;;;2.00;;
47413;SDS011;33163;0.000;0.000;2023-07-08T03:43:31;4.05;;;2.25;;
47413;SDS011;33163;0.000;0.000;2023-07-08T03:45:58;4.07;;;2.30;;
47413;SDS011;33163;0.000;0.000;2023-07-08T03:48:25;3.55;;;1.98;;
47413;SDS011;33163;0.000;0.000;2023-07-08T03:50:53;3.67;;;1.83;;
47413;SDS011;33163;0.000;0.000;2023-07-08T03:53:20;2.83;;;2.03;;
47413;SDS011;33163;0.000;0.000;2023-07-08T03:55:46;2.67;;;1.70;;
47413;SDS011;33163;0.000;0.000;2023-07-08T03:58:13;2.40;;;2.13;;
47413;SDS011;33163;0.000;0.000;2023-07-08T04:00:40;3.92;;;2.05;;
47413;SDS011;33163;0.000;0.000;2023-07-08T04:03:07;3.40;;;1.90;;
47413;SDS011;33163;0.000;0.000;2023-07-08T04:05:36;3.40;;;1.80;;
47413;SDS011;33163;0.000;0.000;2023-07-08T04:08:05;3.10;;;2.20;;
47413;SDS011;33163;0.000;0.000;2023-07-08T04:10:31;3.13;;;2.05;;
47413;SDS011;33163;0.000;0.000;2023-07-08T04:12:58;3.00;;;2.03;;
47413;SDS011;33163;0.000;0.000;2023-07-08T04:15:25;4.03;;;2.30;;
47413;SDS011;33163;0.000;0.000;2023-07-08T04:17:53;3.92;;;2.05;;
47413;SDS011;33163;0.000;0.000;2023-07-08T04:20:21;3.33;;;2.10;;
47413;SDS011;33163;0.000;0.000;2023-07-08T04:22:48;3.20;;;2.10;;
47413;SDS011;33163;0.000;0.000;2023-07-08T04:25:17;2.03;;;1.67;;
47413;SDS011;33163;0.000;0.000;2023-07-08T04:27:44;2.15;;;1.85;;
47413;SDS011;33163;0.000;0.000;2023-07-08T04:30:14;2.25;;;2.05;;
47413;SDS011;33163;0.000;0.000;2023-07-08T04:32:47;2.25;;;1.90;;
47413;SDS011;33163;0.000;0.000;2023-07-08T04:35:15;3.13;;;2.22;;
47413;SDS011;33163;0.000;0.000;2023-07-08T04:37:42;2.25;;;1.85;;
47413;SDS011;33163;0.000;0.000;2023-07-08T04:40:10;2.72;;;1.88;;
47413;SDS011;33163;0.000;0.000;2023-07-08T04:42:45;3.00;;;2.00;;
47413;SDS011;33163;0.000;0.000;2023-07-08T04:45:13;3.70;;;2.42;;
47413;SDS011;33163;0.000;0.000;2023-07-08T04:47:41;2.53;;;2.00;;
47413;SDS011;33163;0.000;0.000;2023-07-08T04:50:08;3.10;;;2.17;;
47413;SDS011;33163;0.000;0.000;2023-07-08T04:52:36;3.67;;;1.92;;
47413;SDS011;33163;0.000;0.000;2023-07-08T04:55:03;1.70;;;1.60;;
47413;SDS011;33163;0.000;0.000;2023-07-08T04:57:31;2.47;;;1.70;;
47413;SDS011;33163;0.000;0.000;2023-07-08T04:59:58;2.08;;;1.85;;
47413;SDS011;33163;0.000;0.000;2023-07-08T05:02:25;2.35;;;1.60;;
47413;SDS011;33163;0.000;0.000;2023-07-08T05:04:51;2.35;;;1.80;;
47413;SDS011;33163;0.000;0.000;2023-07-08T05:07:18;3.80;;;2.30;;
47413;SDS011;33163;0.000;0.000;2023-07-08T05:09:45;2.72;;;1.80;;
47413;SDS011;33163;0.000;0.000;2023-07-08T05:12:12;3.20;;;2.05;;
47413;SDS011;33163;0.000;0.000;2023-07-08T05:14:40;2.47;;;1.92;;
47413;SDS011;33163;0.000;0.000;2023-07-08T05:17:07;4.88;;;1.95;;
47413;SDS011;33163;0.000;0.000;2023-07-08T05:19:34;2.08;;;1.77;;
47413;SDS011;33163;0.000;0.000;2023-07-08T05:22:01;3.95;;;1.80;;
47413;SDS011;33163;0.000;0.000;2023-07-08T05:24:28;3.70;;;1.90;;
47413;SDS011;33163;0.000;0.000;2023-07-08T05:26:54;2.30;;;1.95;;
47413;SDS011;33163;0.000;0.000;2023-07-08T05:29:21;3.05;;;2.42;;
47413;SDS011;33163;0.000;0.000;2023-07-08T05:31:50;2.33;;;1.80;;
47413;SDS011;33163;0.000;0.000;2023-07-08T05:34:16;2.15;;;1.58;;
47413;SDS011;33163;0.000;0.000;2023-07-08T05:36:43;3.30;;;2.17;;
47413;SDS011;33163;0.000;0.000;2023-07-08T05:39:10;2.80;;;2.00;;
47413;SDS011;33163;0.000;0.000;2023-07-08T05:41:37;3.60;;;2.13;;
47413;SDS011;33163;0.000;0.000;2023-07-08T05:44:04;3.55;;;2.13;;
47413;SDS011;33163;0.000;0.000;2023-07-08T05:46:31;2.65;;;1.75;;
47413;SDS011;33163;0.000;0.000;2023-07-08T05:48:59;1.98;;;1.85;;
47413;SDS011;33163;0.000;0.000;2023-07-08T05:51:25;3.60;;;2.00;;
47413;SDS011;33163;0.000;0.000;2023-07-08T05:53:52;3.55;;;2.08;;
47413;SDS011;33163;0.000;0.000;2023-07-08T05:56:19;3.00;;;2.20;;
47413;SDS011;33163;0.000;0.000;2023-07-08T05:58:45;2.67;;;2.30;;
47413;SDS011;33163;0.000;0.000;2023-07-08T06:01:12;2.45;;;1.95;;
47413;SDS011;33163;0.000;0.000;2023-07-08T06:03:39;3.75;;;1.88;;
47413;SDS011;33163;0.000;0.000;2023-07-08T06:06:07;4.40;;;2.00;;
47413;SDS011;33163;0.000;0.000;2023-07-08T06:08:34;2.08;;;1.88;;
47413;SDS011;33163;0.000;0.000;2023-07-08T06:11:01;3.10;;;1.90;;
47413;SDS011;33163;0.000;0.000;2023-07-08T06:13:27;2.90;;;2.08;;
47413;SDS011;33163;0.000;0.000;2023-07-08T06:15:54;4.60;;;2.10;;
47413;SDS011;33163;0.000;0.000;2023-07-08T06:18:21;3.28;;;2.33;;
47413;SDS011;33163;0.000;0.000;2023-07-08T06:20:51;3.03;;;2.10;;
47413;SDS011;33163;0.000;0.000;2023-07-08T06:23:21;3.03;;;2.10;;
47413;SDS011;33163;0.000;0.000;2023-07-08T06:25:48;3.00;;;2.40;;
47413;SDS011;33163;0.000;0.000;2023-07-08T06:28:15;2.67;;;1.70;;
47413;SDS011;33163;0.000;0.000;2023-07-08T06:30:41;2.97;;;1.80;;
47413;SDS011;33163;0.000;0.000;2023-07-08T06:33:09;2.28;;;2.00;;
47413;SDS011;33163;0.000;0.000;2023-07-08T06:35:36;2.45;;;2.10;;
47413;SDS011;33163;0.000;0.000;2023-07-08T06:38:03;6.22;;;2.15;;
47413;SDS011;33163;0.000;0.000;2023-07-08T06:40:32;3.33;;;2.28;;
47413;SDS011;33163;0.000;0.000;2023-07-08T06:42:59;2.63;;;1.88;;
47413;SDS011;33163;0.000;0.000;2023-07-08T06:45:25;2.33;;;1.50;;
47413;SDS011;33163;0.000;0.000;2023-07-08T06:47:52;6.40;;;1.92;;
47413;SDS011;33163;0.000;0.000;2023-07-08T06:50:19;2.67;;;2.00;;
47413;SDS011;33163;0.000;0.000;2023-07-08T06:52:46;3.25;;;2.28;;
47413;SDS011;33163;0.000;0.000;2023-07-08T06:55:13;2.65;;;1.70;;
47413;SDS011;33163;0.000;0.000;2023-07-08T06:57:41;2.88;;;1.60;;
47413;SDS011;33163;0.000;0.000;2023-07-08T07:00:08;4.90;;;2.10;;
47413;SDS011;33163;0.000;0.000;2023-07-08T07:02:36;5.03;;;2.05;;
47413;SDS011;33163;0.000;0.000;2023-07-08T07:05:03;4.22;;;2.15;;
47413;SDS011;33163;0.000;0.000;2023-07-08T07:07:31;4.85;;;2.47;;
47413;SDS011;33163;0.000;0.000;2023-07-08T07:09:59;4.75;;;2.45;;
47413;SDS011;33163;0.000;0.000;2023-07-08T07:12:26;3.45;;;2.53;;
47413;SDS011;33163;0.000;0.000;2023-07-08T07:14:54;6.00;;;2.42;;
47413;SDS011;33163;0.000;0.000;2023-07-08T07:17:21;4.85;;;2.65;;
47413;SDS011;33163;0.000;0.000;2023-07-08T07:19:50;4.32;;;3.00;;
47413;SDS011;33163;0.000;0.000;2023-07-08T07:22:17;5.38;;;3.13;;
47413;SDS011;33163;0.000;0.000;2023-07-08T07:24:43;5.78;;;2.60;;
47413;SDS011;33163;0.000;0.000;2023-07-08T07:27:10;4.50;;;2.90;;
47413;SDS011;33163;0.000;0.000;2023-07-08T07:29:38;4.65;;;2.42;;
47413;SDS011;33163;0.000;0.000;2023-07-08T07:32:09;7.45;;;3.60;;
47413;SDS011;33163;0.000;0.000;2023-07-08T07:34:35;4.35;;;2.67;;
47413;SDS011;33163;0.000;0.000;2023-07-08T07:37:03;6.57;;;3.20;;
47413;SDS011;33163;0.000;0.000;2023-07-08T07:39:30;11.13;;;3.38;;
47413;SDS011;33163;0.000;0.000;2023-07-08T07:41:57;5.45;;;3.25;;
47413;SDS011;33163;0.000;0.000;2023-07-08T07:44:24;5.68;;;2.63;;
47413;SDS011;33163;0.000;0.000;2023-07-08T07:46:51;4.65;;;2.78;;
47413;SDS011;33163;0.000;0.000;2023-07-08T07:49:20;5.22;;;3.33;;
47413;SDS011;33163;0.000;0.000;2023-07-08T07:51:47;5.78;;;3.10;;
47413;SDS011;33163;0.000;0.000;2023-07-08T07:54:14;5.38;;;3.30;;
47413;SDS011;33163;0.000;0.000;2023-07-08T07:56:41;5.00;;;2.92;;
47413;SDS011;33163;0.000;0.000;2023-07-08T07:59:08;5.40;;;3.35;;
47413;SDS011;33163;0.000;0.000;2023-07-08T08:01:36;6.88;;;3.40;;
47413;SDS011;33163;0.000;0.000;2023-07-08T08:04:02;10.88;;;3.63;;
47413;SDS011;33163;0.000;0.000;2023-07-08T08:06:31;6.43;;;3.25;;
47413;SDS011;33163;0.000;0.000;2023-07-08T08:08:58;6.07;;;3.05;;
47413;SDS011;33163;0.000;0.000;2023-07-08T08:11:24;8.13;;;3.45;;
47413;SDS011;33163;0.000;0.000;2023-07-08T08:13:52;6.88;;;3.45;;
47413;SDS011;33163;0.000;0.000;2023-07-08T08:16:19;5.43;;;3.08;;
47413;SDS011;33163;0.000;0.000;2023-07-08T08:18:45;7.60;;;3.58;;
47413;SDS011;33163;0.000;0.000;2023-07-08T08:21:12;8.15;;;3.58;;
47413;SDS011;33163;0.000;0.000;2023-07-08T08:23:40;6.80;;;3.45;;
47413;SDS011;33163;0.000;0.000;2023-07-08T08:26:08;8.50;;;3.90;;
47413;SDS011;33163;0.000;0.000;2023-07-08T08:28:35;7.97;;;3.47;;
47413;SDS011;33163;0.000;0.000;2023-07-08T08:31:02;7.22;;;3.50;;
47413;SDS011;33163;0.000;0.000;2023-07-08T08:33:28;4.95;;;3.28;;
47413;SDS011;33163;0.000;0.000;2023-07-08T08:35:55;8.63;;;3.10;;
47413;SDS011;33163;0.000;0.000;2023-07-08T08:38:22;10.93;;;3.72;;
47413;SDS011;33163;0.000;0.000;2023-07-08T08:40:50;9.13;;;3.63;;
47413;SDS011;33163;0.000;0.000;2023-07-08T08:43:18;5.43;;;3.22;;
47413;SDS011;33163;0.000;0.000;2023-07-08T08:45:50;20.67;;;3.33;;
47413;SDS011;33163;0.000;0.000;2023-07-08T08:48:22;4.82;;;3.20;;
47413;SDS011;33163;0.000;0.000;2023-07-08T08:50:51;8.15;;;3.10;;
47413;SDS011;33163;0.000;0.000;2023-07-08T08:53:19;11.25;;;3.42;;
47413;SDS011;33163;0.000;0.000;2023-07-08T08:55:51;4.32;;;2.55;;
47413;SDS011;33163;0.000;0.000;2023-07-08T08:58:27;7.05;;;2.67;;
47413;SDS011;33163;0.000;0.000;2023-07-08T09:01:04;6.35;;;3.13;;
47413;SDS011;33163;0.000;0.000;2023-07-08T09:03:37;5.40;;;3.33;;
47413;SDS011;33163;0.000;0.000;2023-07-08T09:06:09;7.25;;;2.88;;
47413;SDS011;33163;0.000;0.000;2023-07-08T09:08:38;8.82;;;2.80;;
47413;SDS011;33163;0.000;0.000;2023-07-08T09:11:10;7.38;;;3.28;;
47413;SDS011;33163;0.000;0.000;2023-07-08T09:13:47;5.93;;;2.75;;
47413;SDS011;33163;0.000;0.000;2023-07-08T09:16:19;6.40;;;2.55;;
47413;SDS011;33163;0.000;0.000;2023-07-08T09:18:55;7.97;;;3.05;;
47413;SDS011;33163;0.000;0.000;2023-07-08T09:21:26;8.82;;;3.30;;
47413;SDS011;33163;0.000;0.000;2023-07-08T09:23:56;4.10;;;2.80;;
47413;SDS011;33163;0.000;0.000;2023-07-08T09:26:29;6.55;;;2.60;;
47413;SDS011;33163;0.000;0.000;2023-07-08T09:28:57;6.47;;;2.80;;
47413;SDS011;33163;0.000;0.000;2023-07-08T09:31:25;4.22;;;2.55;;
47413;SDS011;33163;0.000;0.000;2023-07-08T09:33:54;3.67;;;2.70;;
47413;SDS011;33163;0.000;0.000;2023-07-08T09:36:32;5.60;;;2.55;;
47413;SDS011;33163;0.000;0.000;2023-07-08T09:38:58;5.03;;;2.88;;
47413;SDS011;33163;0.000;0.000;2023-07-08T09:41:31;3.90;;;2.78;;
47413;SDS011;33163;0.000;0.000;2023-07-08T09:44:03;6.85;;;3.53;;
47413;SDS011;33163;0.000;0.000;2023-07-08T09:46:41;6.38;;;2.92;;
47413;SDS011;33163;0.000;0.000;2023-07-08T09:49:18;7.03;;;2.78;;
47413;SDS011;33163;0.000;0.000;2023-07-08T09:51:47;5.25;;;2.90;;
47413;SDS011;33163;0.000;0.000;2023-07-08T09:54:15;6.63;;;2.97;;
47413;SDS011;33163;0.000;0.000;2023-07-08T09:56:44;5.18;;;2.88;;
47413;SDS011;33163;0.000;0.000;2023-07-08T09:59:19;11.90;;;2.92;;
47413;SDS011;33163;0.000;0.000;2023-07-08T10:01:49;8.18;;;2.90;;
47413;SDS011;33163;0.000;0.000;2023-07-08T10:04:17;9.00;;;3.00;;
47413;SDS011;33163;0.000;0.000;2023-07-08T10:06:45;5.03;;;3.10;;
47413;SDS011;33163;0.000;0.000;2023-07-08T10:09:13;7.80;;;2.95;;
47413;SDS011;33163;0.000;0.000;2023-07-08T10:11:47;7.93;;;3.47;;
47413;SDS011;33163;0.000;0.000;2023-07-08T10:14:20;9.40;;;2.90;;
47413;SDS011;33163;0.000;0.000;2023-07-08T10:16:52;8.93;;;3.00;;
47413;SDS011;33163;0.000;0.000;2023-07-08T10:19:19;7.43;;;3.28;;
47413;SDS011;33163;0.000;0.000;2023-07-08T10:21:49;7.18;;;2.83;;
47413;SDS011;33163;0.000;0.000;2023-07-08T10:24:30;6.78;;;3.47;;
47413;SDS011;33163;0.000;0.000;2023-07-08T10:27:11;8.15;;;3.20;;
47413;SDS011;33163;0.000;0.000;2023-07-08T10:29:48;5.03;;;3.08;;
47413;SDS011;33163;0.000;0.000;2023-07-08T10:32:22;10.55;;;3.58;;
47413;SDS011;33163;0.000;0.000;2023-07-08T10:34:57;6.57;;;2.58;;
47413;SDS011;33163;0.000;0.000;2023-07-08T10:37:31;4.53;;;2.85;;
47413;SDS011;33163;0.000;0.000;2023-07-08T10:40:10;8.55;;;3.28;;
47413;SDS011;33163;0.000;0.000;2023-07-08T10:42:52;9.00;;;2.90;;
47413;SDS011;33163;0.000;0.000;2023-07-08T10:45:29;4.55;;;3.08;;
47413;SDS011;33163;0.000;0.000;2023-07-08T10:48:04;11.32;;;3.20;;
47413;SDS011;33163;0.000;0.000;2023-07-08T10:50:46;16.98;;;2.63;;
47413;SDS011;33163;0.000;0.000;2023-07-08T10:53:28;5.82;;;3.83;;
47413;SDS011;33163;0.000;0.000;2023-07-08T10:56:04;5.93;;;3.60;;
47413;SDS011;33163;0.000;0.000;2023-07-08T10:58:52;9.20;;;3.75;;
47413;SDS011;33163;0.000;0.000;2023-07-08T11:01:52;6.43;;;3.85;;
47413;SDS011;33163;0.000;0.000;2023-07-08T11:07:27;9.13;;;3.92;;
47413;SDS011;33163;0.000;0.000;2023-07-08T11:09:59;8.70;;;3.92;;
47413;SDS011;33163;0.000;0.000;2023-07-08T11:12:33;6.03;;;3.63;;
47413;SDS011;33163;0.000;0.000;2023-07-08T11:15:05;9.40;;;4.03;;
47413;SDS011;33163;0.000;0.000;2023-07-08T11:17:40;7.30;;;3.63;;
47413;SDS011;33163;0.000;0.000;2023-07-08T11:20:15;6.03;;;3.43;;
47413;SDS011;33163;0.000;0.000;2023-07-08T11:22:45;8.38;;;3.17;;
47413;SDS011;33163;0.000;0.000;2023-07-08T11:25:17;6.30;;;3.10;;
47413;SDS011;33163;0.000;0.000;2023-07-08T11:27:47;4.78;;;3.08;;
47413;SDS011;33163;0.000;0.000;2023-07-08T11:30:21;5.22;;;3.42;;
47413;SDS011;33163;0.000;0.000;2023-07-08T11:32:54;7.72;;;3.42;;
47413;SDS011;33163;0.000;0.000;2023-07-08T11:35:33;6.50;;;3.38;;
47413;SDS011;33163;0.000;0.000;2023-07-08T11:38:04;7.85;;;3.42;;
47413;SDS011;33163;0.000;0.000;2023-07-08T11:40:32;5.40;;;3.25;;
47413;SDS011;33163;0.000;0.000;2023-07-08T11:43:15;6.15;;;3.72;;
47413;SDS011;33163;0.000;0.000;2023-07-08T11:45:43;4.95;;;3.40;;
47413;SDS011;33163;0.000;0.000;2023-07-08T11:48:12;8.48;;;3.63;;
47413;SDS011;33163;0.000;0.000;2023-07-08T11:50:42;6.80;;;3.60;;
47413;SDS011;33163;0.000;0.000;2023-07-08T11:53:12;7.53;;;3.80;;
47413;SDS011;33163;0.000;0.000;2023-07-08T11:55:42;7.32;;;3.53;;
47413;SDS011;33163;0.000;0.000;2023-07-08T11:58:19;10.50;;;3.78;;
47413;SDS011;33163;0.000;0.000;2023-07-08T12:00:54;5.50;;;3.08;;
47413;SDS011;33163;0.000;0.000;2023-07-08T12:03:29;6.68;;;3.97;;
47413;SDS011;33163;0.000;0.000;2023-07-08T12:06:00;5.95;;;3.15;;
47413;SDS011;33163;0.000;0.000;2023-07-08T12:08:32;6.22;;;3.38;;
47413;SDS011;33163;0.000;0.000;2023-07-08T12:11:01;7.60;;;3.72;;
47413;SDS011;33163;0.000;0.000;2023-07-08T12:13:29;7.63;;;3.30;;
47413;SDS011;33163;0.000;0.000;2023-07-08T12:15:57;5.90;;;3.00;;
47413;SDS011;33163;0.000;0.000;2023-07-08T12:18:25;8.68;;;3.35;;
47413;SDS011;33163;0.000;0.000;2023-07-08T12:20:55;7.03;;;3.67;;
47413;SDS011;33163;0.000;0.000;2023-07-08T12:23:25;7.07;;;3.72;;
47413;SDS011;33163;0.000;0.000;2023-07-08T12:25:53;5.88;;;3.42;;
47413;SDS011;33163;0.000;0.000;2023-07-08T12:28:21;5.05;;;3.22;;
47413;SDS011;33163;0.000;0.000;2023-07-08T12:30:48;6.32;;;3.30;;
47413;SDS011;33163;0.000;0.000;2023-07-08T12:33:19;4.82;;;2.97;;
47413;SDS011;33163;0.000;0.000;2023-07-08T12:35:50;10.07;;;3.70;;
47413;SDS011;33163;0.000;0.000;2023-07-08T12:38:18;6.72;;;3.42;;
47413;SDS011;33163;0.000;0.000;2023-07-08T12:40:50;5.93;;;3.60;;
47413;SDS011;33163;0.000;0.000;2023-07-08T12:43:17;5.70;;;3.50;;
47413;SDS011;33163;0.000;0.000;2023-07-08T12:45:44;5.72;;;3.35;;
47413;SDS011;33163;0.000;0.000;2023-07-08T12:48:26;6.47;;;3.10;;
47413;SDS011;33163;0.000;0.000;2023-07-08T12:50:57;4.85;;;3.53;;
47413;SDS011;33163;0.000;0.000;2023-07-08T12:53:24;5.50;;;3.33;;
47413;SDS011;33163;0.000;0.000;2023-07-08T12:55:51;6.82;;;3.75;;
47413;SDS011;33163;0.000;0.000;2023-07-08T12:58:22;11.45;;;3.58;;
47413;SDS011;33163;0.000;0.000;2023-07-08T13:00:52;10.88;;;4.07;;
47413;SDS011;33163;0.000;0.000;2023-07-08T13:03:21;8.73;;;3.95;;
47413;SDS011;33163;0.000;0.000;2023-07-08T13:05:52;13.18;;;4.05;;
47413;SDS011;33163;0.000;0.000;2023-07-08T13:08:21;9.95;;;3.92;;
47413;SDS011;33163;0.000;0.000;2023-07-08T13:10:50;9.70;;;4.53;;
47413;SDS011;33163;0.000;0.000;2023-07-08T13:13:20;8.80;;;3.67;;
47413;SDS011;33163;0.000;0.000;2023-07-08T13:15:49;5.40;;;3.83;;
47413;SDS011;33163;0.000;0.000;2023-07-08T13:18:16;9.43;;;4.40;;
47413;SDS011;33163;0.000;0.000;2023-07-08T13:20:46;7.50;;;4.75;;
47413;SDS011;33163;0.000;0.000;2023-07-08T13:23:18;8.95;;;3.90;;
47413;SDS011;33163;0.000;0.000;2023-07-08T13:25:46;7.30;;;4.75;;
47413;SDS011;33163;0.000;0.000;2023-07-08T13:28:16;8.73;;;4.80;;
47413;SDS011;33163;0.000;0.000;2023-07-08T13:30:51;7.55;;;4.85;;
47413;SDS011;33163;0.000;0.000;2023-07-08T13:33:19;7.53;;;4.45;;
47413;SDS011;33163;0.000;0.000;2023-07-08T13:35:47;11.18;;;4.47;;
47413;SDS011;33163;0.000;0.000;2023-07-08T13:38:15;6.78;;;4.53;;
47413;SDS011;33163;0.000;0.000;2023-07-08T13:40:45;9.45;;;3.75;;
47413;SDS011;33163;0.000;0.000;2023-07-08T13:43:14;8.20;;;4.32;;
47413;SDS011;33163;0.000;0.000;2023-07-08T13:45:43;7.03;;;4.38;;
47413;SDS011;33163;0.000;0.000;2023-07-08T13:48:14;8.55;;;4.80;;
47413;SDS011;33163;0.000;0.000;2023-07-08T13:50:48;10.10;;;4.38;;
47413;SDS011;33163;0.000;0.000;2023-07-08T13:53:18;7.68;;;3.80;;
47413;SDS011;33163;0.000;0.000;2023-07-08T13:55:55;12.18;;;4.80;;
47413;SDS011;33163;0.000;0.000;2023-07-08T13:58:25;7.78;;;4.43;;
47413;SDS011;33163;0.000;0.000;2023-07-08T14:00:54;13.25;;;4.47;;
47413;SDS011;33163;0.000;0.000;2023-07-08T14:03:22;6.15;;;3.92;;
47413;SDS011;33163;0.000;0.000;2023-07-08T14:05:50;6.38;;;4.20;;
47413;SDS011;33163;0.000;0.000;2023-07-08T14:08:17;7.43;;;4.13;;
47413;SDS011;33163;0.000;0.000;2023-07-08T14:10:44;6.38;;;4.13;;
47413;SDS011;33163;0.000;0.000;2023-07-08T14:13:12;9.65;;;4.25;;
47413;SDS011;33163;0.000;0.000;2023-07-08T14:15:40;8.85;;;3.80;;
47413;SDS011;33163;0.000;0.000;2023-07-08T14:18:08;7.82;;;4.38;;
47413;SDS011;33163;0.000;0.000;2023-07-08T14:20:36;8.05;;;4.68;;
47413;SDS011;33163;0.000;0.000;2023-07-08T14:23:03;7.63;;;4.43;;
47413;SDS011;33163;0.000;0.000;2023-07-08T14:25:30;7.07;;;4.90;;
47413;SDS011;33163;0.000;0.000;2023-07-08T14:27:57;7.43;;;4.50;;
47413;SDS011;33163;0.000;0.000;2023-07-08T14:30:25;7.93;;;4.07;;
47413;SDS011;33163;0.000;0.000;2023-07-08T14:32:52;6.65;;;3.95;;
47413;SDS011;33163;0.000;0.000;2023-07-08T14:35:19;8.32;;;4.72;;
47413;SDS011;33163;0.000;0.000;2023-07-08T14:37:49;7.28;;;4.85;;
47413;SDS011;33163;0.000;0.000;2023-07-08T14:40:24;8.90;;;4.68;;
47413;SDS011;33163;0.000;0.000;2023-07-08T14:42:56;6.38;;;4.10;;
47413;SDS011;33163;0.000;0.000;2023-07-08T14:45:26;7.03;;;4.22;;
47413;SDS011;33163;0.000;0.000;2023-07-08T14:47:55;8.02;;;4.20;;
47413;SDS011;33163;0.000;0.000;2023-07-08T14:50:22;8.60;;;4.13;;
47413;SDS011;33163;0.000;0.000;2023-07-08T14:52:50;6.70;;;4.13;;
47413;SDS011;33163;0.000;0.000;2023-07-08T14:55:17;6.80;;;4.75;;
47413;SDS011;33163;0.000;0.000;2023-07-08T14:57:44;7.68;;;4.70;;
47413;SDS011;33163;0.000;0.000;2023-07-08T15:00:13;9.43;;;4.45;;
47413;SDS011;33163;0.000;0.000;2023-07-08T15:02:43;9.80;;;4.75;;
47413;SDS011;33163;0.000;0.000;2023-07-08T15:05:16;8.20;;;4.43;;
47413;SDS011;33163;0.000;0.000;2023-07-08T15:07:44;8.07;;;4.40;;
47413;SDS011;33163;0.000;0.000;2023-07-08T15:10:14;8.98;;;4.82;;
47413;SDS011;33163;0.000;0.000;2023-07-08T15:12:41;8.52;;;4.45;;
47413;SDS011;33163;0.000;0.000;2023-07-08T15:15:13;6.30;;;4.60;;
47413;SDS011;33163;0.000;0.000;2023-07-08T15:17:43;9.48;;;4.53;;